Forside
METAR-TAF:

METAR-TAF

Lufthavne :

Mitiga International Airport

Tripoli, Libyen

Breddekreds: 32-54N, længdekreds: 13-17E, højde: 11 m

Aktuelle vejr

Denne rapport blev lavet for 32 minutter siden, kl. 15:50 UTC
Vind 14 kt fra øst
Temperatur 25°C
Fugtighed 65%
Tryk
Sigt: 1014 m

METAR: HLLM 161550Z 09014KT 8000 NSC 25/18 1014

Tid: 18:22 (16:22 UTC)

Vejrudsigter

Denne rapport blev lavet for 5 timer og 22 minutter siden, kl. 11:00 UTC
Foreløbig gælder fra 16 på 12 UTC til 17 på 12 UTC
Vind 12 kt fra østsydøst
Sigt: 8000 m

TAF: HLLM 161100Z 1612/1712 06012KT 8000 NSC BECMG1702/1704 12012KT

Vejrobservationer og prognoser fra mere end 4000 lufthavne (METAR og TAF).

De gule og røde prikker repræsenterer de meteorologiske stationer.

Flyt musen over at se navnet på stationen.

Så klik over at se vejr observationer og prognoser.

At skifte det kort: Klik på de grønne knapper med et sort kors for at zoome ind; på den grønne knap med en bindestreg for at zoome ud; eller på de grønne pile for tilstødende kort.


METAR-TAF: